createdAt,value
2023-02-06T00:01:45.411Z,5.13
2023-02-06T00:07:07.829Z,4.40
2023-02-06T00:12:30.252Z,5.43
2023-02-06T00:17:52.549Z,4.13
2023-02-06T00:23:15.066Z,4.70
2023-02-06T00:28:38.018Z,4.07
2023-02-06T00:34:00.205Z,4.67
2023-02-06T00:39:22.459Z,5.07
2023-02-06T00:44:44.767Z,5.07
2023-02-06T00:50:07.024Z,5.40
2023-02-06T00:55:29.588Z,5.00
2023-02-06T01:00:53.251Z,5.60
2023-02-06T01:06:15.320Z,4.67
2023-02-06T01:11:38.051Z,5.30
2023-02-06T01:17:00.387Z,4.43
2023-02-06T01:22:22.668Z,5.23
2023-02-06T01:27:44.969Z,5.63
2023-02-06T01:33:08.971Z,5.97
2023-02-06T01:38:32.716Z,5.17
2023-02-06T01:44:17.490Z,5.13
2023-02-06T01:49:45.799Z,5.43
2023-02-06T01:55:08.359Z,5.73
2023-02-06T02:00:31.313Z,4.97
2023-02-06T02:05:58.320Z,4.80
2023-02-06T02:11:34.842Z,4.73
2023-02-06T02:17:06.228Z,4.97
2023-02-06T02:22:50.154Z,5.13
2023-02-06T02:28:18.988Z,4.83
2023-02-06T02:34:10.593Z,4.80
2023-02-06T02:40:02.926Z,4.90
2023-02-06T02:45:43.426Z,4.53
2023-02-06T02:51:07.015Z,4.50
2023-02-06T02:56:30.749Z,4.60
2023-02-06T03:01:58.940Z,4.67
2023-02-06T03:08:12.004Z,5.00
2023-02-06T03:13:43.095Z,4.77
2023-02-06T03:19:07.608Z,5.60
2023-02-06T03:24:34.444Z,4.50
2023-02-06T03:30:00.934Z,4.60
2023-02-06T03:35:29.607Z,4.70
2023-02-06T03:40:54.413Z,4.20
2023-02-06T03:46:18.733Z,5.20
2023-02-06T03:51:47.426Z,4.83
2023-02-06T03:57:14.065Z,5.07
2023-02-06T04:02:37.513Z,4.20
2023-02-06T04:08:00.047Z,4.87
2023-02-06T04:13:22.696Z,4.87
2023-02-06T04:18:44.876Z,5.20
2023-02-06T04:24:07.488Z,4.17
2023-02-06T04:29:31.202Z,6.10
2023-02-06T04:34:53.361Z,4.87
2023-02-06T04:40:15.686Z,5.30
2023-02-06T04:45:38.224Z,5.73
2023-02-06T04:51:00.832Z,5.10
2023-02-06T04:56:25.576Z,5.70
2023-02-06T05:01:48.185Z,5.13
2023-02-06T05:07:10.419Z,5.83
2023-02-06T05:12:33.001Z,5.70
2023-02-06T05:17:55.486Z,4.80
2023-02-06T05:23:17.970Z,5.63
2023-02-06T05:28:40.346Z,4.67
2023-02-06T05:34:03.198Z,5.67
2023-02-06T05:39:26.442Z,5.67
2023-02-06T05:44:48.965Z,5.37
2023-02-06T05:50:11.548Z,6.00
2023-02-06T05:55:34.473Z,5.73
2023-02-06T06:00:56.991Z,6.50
2023-02-06T06:06:19.676Z,4.90
2023-02-06T06:11:42.166Z,5.37
2023-02-06T06:17:04.418Z,6.20
2023-02-06T06:22:26.845Z,6.00
2023-02-06T06:27:49.112Z,6.13
2023-02-06T06:33:11.727Z,6.10
2023-02-06T06:38:34.305Z,6.17
2023-02-06T06:43:57.749Z,6.80
2023-02-06T06:49:20.417Z,6.23
2023-02-06T06:54:43.554Z,7.00
2023-02-06T07:00:06.243Z,6.67
2023-02-06T07:05:28.564Z,7.57
2023-02-06T07:10:51.001Z,7.43
2023-02-06T07:16:13.906Z,7.10
2023-02-06T07:21:36.433Z,7.37
2023-02-06T07:26:58.844Z,8.73
2023-02-06T07:32:21.169Z,8.33
2023-02-06T07:37:43.478Z,7.90
2023-02-06T07:43:08.692Z,9.03
2023-02-06T07:48:32.272Z,7.80
2023-02-06T07:53:55.031Z,7.90
2023-02-06T07:59:17.529Z,7.47
2023-02-06T08:04:40.219Z,7.57
2023-02-06T08:10:02.571Z,9.03
2023-02-06T08:15:25.464Z,9.63
2023-02-06T08:20:47.954Z,9.03
2023-02-06T08:26:13.568Z,9.93
2023-02-06T08:31:38.719Z,9.73
2023-02-06T08:37:00.896Z,10.57
2023-02-06T08:42:23.587Z,10.07
2023-02-06T08:47:45.870Z,11.53
2023-02-06T08:53:08.390Z,11.70
2023-02-06T08:58:31.359Z,11.33
2023-02-06T09:03:59.212Z,11.57
2023-02-06T09:09:21.751Z,11.77
2023-02-06T09:14:44.489Z,12.57
2023-02-06T09:20:07.548Z,10.77
2023-02-06T09:25:29.884Z,12.17
2023-02-06T09:30:52.383Z,11.57
2023-02-06T09:36:17.172Z,12.97
2023-02-06T09:42:04.806Z,12.53
2023-02-06T09:47:45.755Z,11.53
2023-02-06T09:53:15.210Z,11.47
2023-02-06T09:58:40.304Z,11.27
2023-02-06T10:04:10.254Z,12.57
2023-02-06T10:09:41.682Z,10.53
2023-02-06T10:15:25.010Z,11.20
2023-02-06T10:20:55.223Z,11.87
2023-02-06T10:26:19.165Z,10.90
2023-02-06T10:31:53.812Z,11.37
2023-02-06T10:37:31.292Z,11.50
2023-02-06T10:43:02.025Z,10.50
2023-02-06T10:48:36.330Z,12.10
2023-02-06T10:54:03.137Z,12.00
2023-02-06T10:59:53.972Z,10.70
2023-02-06T11:05:21.782Z,10.60
2023-02-06T11:10:45.352Z,10.03
2023-02-06T11:16:16.405Z,8.23
2023-02-06T11:21:50.953Z,9.53
2023-02-06T11:27:21.065Z,9.53
2023-02-06T11:32:52.709Z,7.73
2023-02-06T11:38:28.192Z,6.47
2023-02-06T11:43:53.168Z,6.67
2023-02-06T11:49:31.462Z,7.00
2023-02-06T11:54:55.517Z,6.80
2023-02-06T12:00:23.023Z,6.23
2023-02-06T12:05:45.664Z,6.50
2023-02-06T12:11:16.411Z,6.90
2023-02-06T12:16:42.201Z,6.27
2023-02-06T12:22:21.256Z,6.37
2023-02-06T12:27:44.488Z,6.37
2023-02-06T12:33:22.285Z,7.30
2023-02-06T12:39:11.838Z,6.13
2023-02-06T12:44:40.564Z,7.93
2023-02-06T12:50:39.954Z,6.27
2023-02-06T12:56:05.359Z,6.60
2023-02-06T13:01:43.191Z,6.73
2023-02-06T13:07:15.778Z,6.73
2023-02-06T13:12:38.284Z,7.00
2023-02-06T13:18:00.578Z,8.30
2023-02-06T13:23:24.442Z,7.07
2023-02-06T13:28:57.883Z,7.30
2023-02-06T13:34:20.488Z,7.40
2023-02-06T13:39:48.190Z,7.00
2023-02-06T13:45:22.094Z,6.83
2023-02-06T13:50:46.940Z,6.30
2023-02-06T13:56:14.523Z,6.13
2023-02-06T14:01:37.158Z,5.67
2023-02-06T14:07:25.085Z,5.90
2023-02-06T14:12:50.104Z,6.50
2023-02-06T14:18:41.183Z,6.03
2023-02-06T14:24:28.123Z,6.07
2023-02-06T14:30:02.832Z,5.63
2023-02-06T14:35:42.154Z,6.73
2023-02-06T14:41:04.957Z,6.70
2023-02-06T14:46:29.337Z,6.27
2023-02-06T14:51:52.742Z,6.63
2023-02-06T14:57:23.038Z,6.60
2023-02-06T15:02:46.422Z,5.97
2023-02-06T15:08:17.378Z,6.73
2023-02-06T15:13:39.970Z,7.43
2023-02-06T15:19:24.039Z,6.67
2023-02-06T15:25:25.976Z,6.27
2023-02-06T15:30:54.550Z,6.17
2023-02-06T15:36:32.651Z,6.57
2023-02-06T15:41:55.264Z,6.90
2023-02-06T15:47:20.863Z,5.90
2023-02-06T15:52:47.312Z,7.57
2023-02-06T15:58:15.632Z,7.63
2023-02-06T16:03:41.775Z,6.73
2023-02-06T16:09:07.405Z,6.57
2023-02-06T16:14:39.124Z,7.30
2023-02-06T16:20:07.537Z,6.17
2023-02-06T16:25:32.194Z,6.47
2023-02-06T16:30:57.920Z,7.50
2023-02-06T16:36:22.908Z,8.03
2023-02-06T16:41:51.174Z,6.83
2023-02-06T16:47:16.160Z,8.20
2023-02-06T16:52:46.056Z,8.17
2023-02-06T16:58:15.815Z,8.27
2023-02-06T17:03:38.887Z,9.97
2023-02-06T17:09:06.578Z,9.90
2023-02-06T17:14:28.703Z,11.03
2023-02-06T17:19:52.390Z,11.57
2023-02-06T17:25:14.693Z,12.60
2023-02-06T17:30:38.278Z,12.23
2023-02-06T17:36:01.470Z,11.37
2023-02-06T17:41:23.977Z,10.73
2023-02-06T17:46:47.856Z,11.47
2023-02-06T17:52:09.987Z,11.10
2023-02-06T17:57:33.973Z,12.63
2023-02-06T18:02:59.396Z,12.23
2023-02-06T18:08:21.912Z,13.37
2023-02-06T18:13:45.082Z,13.73
2023-02-06T18:19:07.401Z,12.97
2023-02-06T18:24:29.905Z,13.07
2023-02-06T18:29:55.258Z,14.93
2023-02-06T18:35:19.867Z,22.23
2023-02-06T18:40:45.640Z,17.57
2023-02-06T18:46:08.124Z,20.03
2023-02-06T18:51:30.878Z,23.47
2023-02-06T18:56:53.587Z,22.00
2023-02-06T19:02:16.343Z,20.40
2023-02-06T19:07:38.608Z,24.23
2023-02-06T19:13:01.412Z,23.30
2023-02-06T19:18:37.481Z,23.73
2023-02-06T19:24:01.237Z,21.50
2023-02-06T19:29:35.177Z,20.83
2023-02-06T19:34:58.667Z,16.53
2023-02-06T19:40:21.129Z,14.17
2023-02-06T19:45:43.266Z,14.37
2023-02-06T19:51:08.568Z,13.73
2023-02-06T19:56:34.717Z,14.93
2023-02-06T20:02:00.318Z,13.73
2023-02-06T20:07:22.530Z,12.70
2023-02-06T20:12:45.235Z,13.60
2023-02-06T20:18:07.673Z,12.20
2023-02-06T20:23:30.596Z,13.13
2023-02-06T20:28:53.027Z,12.10
2023-02-06T20:34:16.395Z,13.33
2023-02-06T20:39:39.368Z,14.23
2023-02-06T20:45:01.869Z,14.67
2023-02-06T20:50:24.360Z,13.13
2023-02-06T20:55:47.318Z,13.67
2023-02-06T21:01:16.941Z,14.80
2023-02-06T21:06:40.382Z,12.70
2023-02-06T21:12:02.901Z,12.70
2023-02-06T21:17:25.196Z,13.10
2023-02-06T21:22:47.731Z,13.80
2023-02-06T21:28:10.090Z,13.57
2023-02-06T21:33:33.496Z,13.80
2023-02-06T21:38:56.877Z,13.17
2023-02-06T21:44:20.503Z,12.87
2023-02-06T21:49:43.015Z,12.70
2023-02-06T21:55:07.600Z,11.93
2023-02-06T22:00:30.514Z,13.60
2023-02-06T22:05:52.783Z,15.23
2023-02-06T22:11:16.703Z,11.93
2023-02-06T22:16:39.508Z,10.20
2023-02-06T22:22:02.620Z,13.77
2023-02-06T22:27:27.655Z,10.23
2023-02-06T22:32:49.780Z,10.30
2023-02-06T22:38:12.072Z,11.90
2023-02-06T22:43:37.211Z,10.23
2023-02-06T22:49:00.044Z,11.77
2023-02-06T22:54:22.553Z,9.73
2023-02-06T22:59:44.707Z,9.63
2023-02-06T23:05:07.099Z,8.63
2023-02-06T23:10:29.321Z,9.33
2023-02-06T23:15:51.667Z,8.97
2023-02-06T23:21:15.172Z,9.80
2023-02-06T23:26:37.983Z,9.23
2023-02-06T23:32:00.354Z,7.47
2023-02-06T23:37:22.786Z,7.93
2023-02-06T23:42:45.534Z,8.43
2023-02-06T23:48:07.770Z,8.60
2023-02-06T23:53:31.523Z,8.70
2023-02-06T23:58:56.140Z,8.87
